sensor_id;sensor_type;location;lat;lon;timestamp;pressure;altitude;pressure_sealevel;temperature
10869;BMP180;62667;48.698;8.762;2023-02-11T00:01:04;97875.00;;;-2.20
10869;BMP180;62667;48.698;8.762;2023-02-11T00:03:32;97863.00;;;-2.20
10869;BMP180;62667;48.698;8.762;2023-02-11T00:06:02;97860.00;;;-2.10
10869;BMP180;62667;48.698;8.762;2023-02-11T00:08:31;97862.00;;;-2.10
10869;BMP180;62667;48.698;8.762;2023-02-11T00:10:58;97867.00;;;-2.10
10869;BMP180;62667;48.698;8.762;2023-02-11T00:13:26;97856.00;;;-2.10
10869;BMP180;62667;48.698;8.762;2023-02-11T00:15:54;97856.00;;;-2.00
10869;BMP180;62667;48.698;8.762;2023-02-11T00:18:22;97849.00;;;-2.00
10869;BMP180;62667;48.698;8.762;2023-02-11T00:20:50;97860.00;;;-2.10
10869;BMP180;62667;48.698;8.762;2023-02-11T00:23:18;97858.00;;;-2.10
10869;BMP180;62667;48.698;8.762;2023-02-11T00:25:46;97865.00;;;-2.00
10869;BMP180;62667;48.698;8.762;2023-02-11T00:28:13;97861.00;;;-2.00
10869;BMP180;62667;48.698;8.762;2023-02-11T00:30:40;97851.00;;;-2.10
10869;BMP180;62667;48.698;8.762;2023-02-11T00:33:08;97859.00;;;-2.10
10869;BMP180;62667;48.698;8.762;2023-02-11T00:35:36;97849.00;;;-2.10
10869;BMP180;62667;48.698;8.762;2023-02-11T00:38:04;97854.00;;;-2.30
10869;BMP180;62667;48.698;8.762;2023-02-11T00:40:33;97843.00;;;-2.40
10869;BMP180;62667;48.698;8.762;2023-02-11T00:43:00;97843.00;;;-2.40
10869;BMP180;62667;48.698;8.762;2023-02-11T00:45:27;97837.00;;;-2.30
10869;BMP180;62667;48.698;8.762;2023-02-11T00:47:55;97832.00;;;-2.20
10869;BMP180;62667;48.698;8.762;2023-02-11T00:50:23;97833.00;;;-2.20
10869;BMP180;62667;48.698;8.762;2023-02-11T00:52:51;97848.00;;;-2.30
10869;BMP180;62667;48.698;8.762;2023-02-11T00:55:18;97844.00;;;-2.20
10869;BMP180;62667;48.698;8.762;2023-02-11T00:57:47;97845.00;;;-2.30
10869;BMP180;62667;48.698;8.762;2023-02-11T01:00:15;97845.00;;;-2.30
10869;BMP180;62667;48.698;8.762;2023-02-11T01:02:43;97845.00;;;-2.30
10869;BMP180;62667;48.698;8.762;2023-02-11T01:05:10;97843.00;;;-2.40
10869;BMP180;62667;48.698;8.762;2023-02-11T01:07:37;97844.00;;;-2.40
10869;BMP180;62667;48.698;8.762;2023-02-11T01:10:05;97845.00;;;-2.40
10869;BMP180;62667;48.698;8.762;2023-02-11T01:12:33;97842.00;;;-2.40
10869;BMP180;62667;48.698;8.762;2023-02-11T01:15:02;97838.00;;;-2.40
10869;BMP180;62667;48.698;8.762;2023-02-11T01:17:30;97840.00;;;-2.50
10869;BMP180;62667;48.698;8.762;2023-02-11T01:19:57;97837.00;;;-2.40
10869;BMP180;62667;48.698;8.762;2023-02-11T01:22:24;97832.00;;;-2.40
10869;BMP180;62667;48.698;8.762;2023-02-11T01:24:52;97814.00;;;-2.60
10869;BMP180;62667;48.698;8.762;2023-02-11T01:27:19;97814.00;;;-2.50
10869;BMP180;62667;48.698;8.762;2023-02-11T01:29:47;97821.00;;;-2.60
10869;BMP180;62667;48.698;8.762;2023-02-11T01:32:15;97810.00;;;-2.60
10869;BMP180;62667;48.698;8.762;2023-02-11T01:34:43;97810.00;;;-2.50
10869;BMP180;62667;48.698;8.762;2023-02-11T01:37:10;97803.00;;;-2.50
10869;BMP180;62667;48.698;8.762;2023-02-11T01:39:38;97804.00;;;-2.50
10869;BMP180;62667;48.698;8.762;2023-02-11T01:42:05;97801.00;;;-2.50
10869;BMP180;62667;48.698;8.762;2023-02-11T01:44:35;97806.00;;;-2.60
10869;BMP180;62667;48.698;8.762;2023-02-11T01:47:03;97792.00;;;-2.60
10869;BMP180;62667;48.698;8.762;2023-02-11T01:49:34;97788.00;;;-2.60
10869;BMP180;62667;48.698;8.762;2023-02-11T01:52:06;97788.00;;;-2.50
10869;BMP180;62667;48.698;8.762;2023-02-11T01:54:39;97794.00;;;-2.60
10869;BMP180;62667;48.698;8.762;2023-02-11T01:57:27;97784.00;;;-2.60
10869;BMP180;62667;48.698;8.762;2023-02-11T02:00:04;97784.00;;;-2.50
10869;BMP180;62667;48.698;8.762;2023-02-11T02:02:36;97771.00;;;-2.60
10869;BMP180;62667;48.698;8.762;2023-02-11T02:05:14;97783.00;;;-2.60
10869;BMP180;62667;48.698;8.762;2023-02-11T02:07:51;97775.00;;;-2.70
10869;BMP180;62667;48.698;8.762;2023-02-11T02:10:22;97779.00;;;-2.70
10869;BMP180;62667;48.698;8.762;2023-02-11T02:12:51;97784.00;;;-2.70
10869;BMP180;62667;48.698;8.762;2023-02-11T02:15:22;97783.00;;;-2.70
10869;BMP180;62667;48.698;8.762;2023-02-11T02:17:58;97783.00;;;-2.70
10869;BMP180;62667;48.698;8.762;2023-02-11T02:20:51;97784.00;;;-2.60
10869;BMP180;62667;48.698;8.762;2023-02-11T02:23:30;97796.00;;;-2.70
10869;BMP180;62667;48.698;8.762;2023-02-11T02:26:18;97774.00;;;-2.90
10869;BMP180;62667;48.698;8.762;2023-02-11T02:29:18;97768.00;;;-2.90
10869;BMP180;62667;48.698;8.762;2023-02-11T02:32:11;97758.00;;;-2.90
10869;BMP180;62667;48.698;8.762;2023-02-11T02:34:46;97755.00;;;-2.90
10869;BMP180;62667;48.698;8.762;2023-02-11T02:37:20;97739.00;;;-2.90
10869;BMP180;62667;48.698;8.762;2023-02-11T02:39:50;97751.00;;;-3.00
10869;BMP180;62667;48.698;8.762;2023-02-11T02:42:18;97750.00;;;-2.90
10869;BMP180;62667;48.698;8.762;2023-02-11T02:44:48;97751.00;;;-2.90
10869;BMP180;62667;48.698;8.762;2023-02-11T02:47:16;97740.00;;;-2.90
10869;BMP180;62667;48.698;8.762;2023-02-11T02:49:44;97746.00;;;-2.80
10869;BMP180;62667;48.698;8.762;2023-02-11T02:52:25;97733.00;;;-2.90
10869;BMP180;62667;48.698;8.762;2023-02-11T02:58:04;97740.00;;;-2.80
10869;BMP180;62667;48.698;8.762;2023-02-11T03:00:42;97736.00;;;-2.80
10869;BMP180;62667;48.698;8.762;2023-02-11T03:03:21;97739.00;;;-3.00
10869;BMP180;62667;48.698;8.762;2023-02-11T03:05:55;97742.00;;;-2.90
10869;BMP180;62667;48.698;8.762;2023-02-11T03:08:28;97739.00;;;-3.00
10869;BMP180;62667;48.698;8.762;2023-02-11T03:10:57;97739.00;;;-3.00
10869;BMP180;62667;48.698;8.762;2023-02-11T03:13:28;97733.00;;;-3.00
10869;BMP180;62667;48.698;8.762;2023-02-11T03:16:01;97731.00;;;-2.90
10869;BMP180;62667;48.698;8.762;2023-02-11T03:18:32;97735.00;;;-3.00
10869;BMP180;62667;48.698;8.762;2023-02-11T03:21:02;97738.00;;;-2.90
10869;BMP180;62667;48.698;8.762;2023-02-11T03:23:35;97734.00;;;-2.90
10869;BMP180;62667;48.698;8.762;2023-02-11T03:26:10;97738.00;;;-2.70
10869;BMP180;62667;48.698;8.762;2023-02-11T03:28:43;97740.00;;;-2.70
10869;BMP180;62667;48.698;8.762;2023-02-11T03:31:16;97748.00;;;-2.70
10869;BMP180;62667;48.698;8.762;2023-02-11T03:33:52;97743.00;;;-2.80
10869;BMP180;62667;48.698;8.762;2023-02-11T03:36:26;97750.00;;;-3.00
10869;BMP180;62667;48.698;8.762;2023-02-11T03:38:59;97743.00;;;-3.10
10869;BMP180;62667;48.698;8.762;2023-02-11T03:41:28;97740.00;;;-3.30
10869;BMP180;62667;48.698;8.762;2023-02-11T03:43:57;97738.00;;;-3.30
10869;BMP180;62667;48.698;8.762;2023-02-11T03:46:29;97726.00;;;-3.30
10869;BMP180;62667;48.698;8.762;2023-02-11T03:49:03;97740.00;;;-3.30
10869;BMP180;62667;48.698;8.762;2023-02-11T03:51:31;97728.00;;;-3.20
10869;BMP180;62667;48.698;8.762;2023-02-11T03:54:02;97715.00;;;-3.20
10869;BMP180;62667;48.698;8.762;2023-02-11T03:56:37;97729.00;;;-3.30
10869;BMP180;62667;48.698;8.762;2023-02-11T03:59:05;97725.00;;;-3.30
10869;BMP180;62667;48.698;8.762;2023-02-11T04:01:33;97718.00;;;-3.30
10869;BMP180;62667;48.698;8.762;2023-02-11T04:04:03;97708.00;;;-3.20
10869;BMP180;62667;48.698;8.762;2023-02-11T04:06:30;97714.00;;;-3.10
10869;BMP180;62667;48.698;8.762;2023-02-11T04:08:58;97703.00;;;-3.00
10869;BMP180;62667;48.698;8.762;2023-02-11T04:11:25;97715.00;;;-3.00
10869;BMP180;62667;48.698;8.762;2023-02-11T04:13:53;97716.00;;;-3.00
10869;BMP180;62667;48.698;8.762;2023-02-11T04:16:20;97710.00;;;-2.90
10869;BMP180;62667;48.698;8.762;2023-02-11T04:18:47;97707.00;;;-3.00
10869;BMP180;62667;48.698;8.762;2023-02-11T04:21:16;97716.00;;;-2.90
10869;BMP180;62667;48.698;8.762;2023-02-11T04:23:44;97726.00;;;-2.90
10869;BMP180;62667;48.698;8.762;2023-02-11T04:26:11;97735.00;;;-3.00
10869;BMP180;62667;48.698;8.762;2023-02-11T04:28:38;97733.00;;;-3.10
10869;BMP180;62667;48.698;8.762;2023-02-11T04:31:06;97745.00;;;-3.10
10869;BMP180;62667;48.698;8.762;2023-02-11T04:33:33;97740.00;;;-3.20
10869;BMP180;62667;48.698;8.762;2023-02-11T04:36:01;97732.00;;;-3.10
10869;BMP180;62667;48.698;8.762;2023-02-11T04:38:30;97730.00;;;-3.00
10869;BMP180;62667;48.698;8.762;2023-02-11T04:40:57;97722.00;;;-3.00
10869;BMP180;62667;48.698;8.762;2023-02-11T04:43:25;97725.00;;;-3.00
10869;BMP180;62667;48.698;8.762;2023-02-11T04:45:56;97730.00;;;-2.90
10869;BMP180;62667;48.698;8.762;2023-02-11T04:48:24;97725.00;;;-2.90
10869;BMP180;62667;48.698;8.762;2023-02-11T04:50:51;97710.00;;;-2.90
10869;BMP180;62667;48.698;8.762;2023-02-11T04:53:19;97721.00;;;-2.90
10869;BMP180;62667;48.698;8.762;2023-02-11T04:55:49;97709.00;;;-2.80
10869;BMP180;62667;48.698;8.762;2023-02-11T04:58:17;97707.00;;;-2.70
10869;BMP180;62667;48.698;8.762;2023-02-11T05:00:45;97720.00;;;-2.70
10869;BMP180;62667;48.698;8.762;2023-02-11T05:03:13;97714.00;;;-2.60
10869;BMP180;62667;48.698;8.762;2023-02-11T05:05:41;97710.00;;;-2.50
10869;BMP180;62667;48.698;8.762;2023-02-11T05:08:09;97728.00;;;-2.50
10869;BMP180;62667;48.698;8.762;2023-02-11T05:10:37;97720.00;;;-2.40
10869;BMP180;62667;48.698;8.762;2023-02-11T05:13:06;97706.00;;;-2.40
10869;BMP180;62667;48.698;8.762;2023-02-11T05:15:33;97707.00;;;-2.50
10869;BMP180;62667;48.698;8.762;2023-02-11T05:18:01;97706.00;;;-2.60
10869;BMP180;62667;48.698;8.762;2023-02-11T05:20:28;97698.00;;;-2.50
10869;BMP180;62667;48.698;8.762;2023-02-11T05:22:56;97691.00;;;-2.50
10869;BMP180;62667;48.698;8.762;2023-02-11T05:25:23;97689.00;;;-2.50
10869;BMP180;62667;48.698;8.762;2023-02-11T05:27:50;97695.00;;;-2.50
10869;BMP180;62667;48.698;8.762;2023-02-11T05:30:19;97705.00;;;-2.50
10869;BMP180;62667;48.698;8.762;2023-02-11T05:32:47;97694.00;;;-2.50
10869;BMP180;62667;48.698;8.762;2023-02-11T05:35:15;97683.00;;;-2.40
10869;BMP180;62667;48.698;8.762;2023-02-11T05:37:42;97672.00;;;-2.40
10869;BMP180;62667;48.698;8.762;2023-02-11T05:40:10;97677.00;;;-2.30
10869;BMP180;62667;48.698;8.762;2023-02-11T05:42:38;97679.00;;;-2.20
10869;BMP180;62667;48.698;8.762;2023-02-11T05:45:06;97660.00;;;-2.10
10869;BMP180;62667;48.698;8.762;2023-02-11T05:47:35;97659.00;;;-2.10
10869;BMP180;62667;48.698;8.762;2023-02-11T05:50:02;97648.00;;;-2.10
10869;BMP180;62667;48.698;8.762;2023-02-11T05:52:30;97655.00;;;-2.00
10869;BMP180;62667;48.698;8.762;2023-02-11T05:54:57;97635.00;;;-2.00
10869;BMP180;62667;48.698;8.762;2023-02-11T05:57:26;97622.00;;;-2.00
10869;BMP180;62667;48.698;8.762;2023-02-11T05:59:53;97632.00;;;-1.90
10869;BMP180;62667;48.698;8.762;2023-02-11T06:02:21;97628.00;;;-1.90
10869;BMP180;62667;48.698;8.762;2023-02-11T06:04:50;97641.00;;;-1.80
10869;BMP180;62667;48.698;8.762;2023-02-11T06:07:17;97639.00;;;-1.90
10869;BMP180;62667;48.698;8.762;2023-02-11T06:09:44;97662.00;;;-1.80
10869;BMP180;62667;48.698;8.762;2023-02-11T06:12:12;97680.00;;;-1.80
10869;BMP180;62667;48.698;8.762;2023-02-11T06:14:40;97687.00;;;-1.70
10869;BMP180;62667;48.698;8.762;2023-02-11T06:17:07;97677.00;;;-1.90
10869;BMP180;62667;48.698;8.762;2023-02-11T06:19:35;97674.00;;;-1.90
10869;BMP180;62667;48.698;8.762;2023-02-11T06:22:04;97683.00;;;-2.00
10869;BMP180;62667;48.698;8.762;2023-02-11T06:24:31;97692.00;;;-2.00
10869;BMP180;62667;48.698;8.762;2023-02-11T06:26:59;97697.00;;;-1.80
10869;BMP180;62667;48.698;8.762;2023-02-11T06:29:26;97707.00;;;-1.80
10869;BMP180;62667;48.698;8.762;2023-02-11T06:31:54;97709.00;;;-1.80
10869;BMP180;62667;48.698;8.762;2023-02-11T06:34:21;97706.00;;;-1.80
10869;BMP180;62667;48.698;8.762;2023-02-11T06:36:49;97702.00;;;-1.80
10869;BMP180;62667;48.698;8.762;2023-02-11T06:39:18;97682.00;;;-1.80
10869;BMP180;62667;48.698;8.762;2023-02-11T06:41:45;97684.00;;;-1.70
10869;BMP180;62667;48.698;8.762;2023-02-11T06:44:13;97686.00;;;-1.60
10869;BMP180;62667;48.698;8.762;2023-02-11T06:46:40;97680.00;;;-1.70
10869;BMP180;62667;48.698;8.762;2023-02-11T06:49:07;97672.00;;;-1.70
10869;BMP180;62667;48.698;8.762;2023-02-11T06:51:35;97674.00;;;-1.70
10869;BMP180;62667;48.698;8.762;2023-02-11T06:54:04;97665.00;;;-1.60
10869;BMP180;62667;48.698;8.762;2023-02-11T06:56:33;97679.00;;;-1.50
10869;BMP180;62667;48.698;8.762;2023-02-11T06:59:02;97688.00;;;-1.40
10869;BMP180;62667;48.698;8.762;2023-02-11T07:01:29;97690.00;;;-1.30
10869;BMP180;62667;48.698;8.762;2023-02-11T07:03:56;97683.00;;;-1.30
10869;BMP180;62667;48.698;8.762;2023-02-11T07:06:25;97693.00;;;-1.20
10869;BMP180;62667;48.698;8.762;2023-02-11T07:08:54;97699.00;;;-1.20
10869;BMP180;62667;48.698;8.762;2023-02-11T07:11:24;97705.00;;;-1.30
10869;BMP180;62667;48.698;8.762;2023-02-11T07:13:55;97692.00;;;-1.20
10869;BMP180;62667;48.698;8.762;2023-02-11T07:16:23;97712.00;;;-1.30
10869;BMP180;62667;48.698;8.762;2023-02-11T07:18:50;97690.00;;;-1.30
10869;BMP180;62667;48.698;8.762;2023-02-11T07:21:20;97701.00;;;-1.20
10869;BMP180;62667;48.698;8.762;2023-02-11T07:23:49;97700.00;;;-1.20
10869;BMP180;62667;48.698;8.762;2023-02-11T07:26:18;97691.00;;;-1.20
10869;BMP180;62667;48.698;8.762;2023-02-11T07:28:46;97700.00;;;-1.30
10869;BMP180;62667;48.698;8.762;2023-02-11T07:31:18;97698.00;;;-1.20
10869;BMP180;62667;48.698;8.762;2023-02-11T07:33:45;97683.00;;;-1.20
10869;BMP180;62667;48.698;8.762;2023-02-11T07:36:15;97688.00;;;-1.10
10869;BMP180;62667;48.698;8.762;2023-02-11T07:38:43;97699.00;;;-1.00
10869;BMP180;62667;48.698;8.762;2023-02-11T07:41:14;97690.00;;;-1.00
10869;BMP180;62667;48.698;8.762;2023-02-11T07:43:43;97701.00;;;-0.90
10869;BMP180;62667;48.698;8.762;2023-02-11T07:46:16;97714.00;;;-0.90
10869;BMP180;62667;48.698;8.762;2023-02-11T07:48:43;97727.00;;;-0.70
10869;BMP180;62667;48.698;8.762;2023-02-11T07:51:13;97716.00;;;-0.70
10869;BMP180;62667;48.698;8.762;2023-02-11T07:53:41;97734.00;;;-0.70
10869;BMP180;62667;48.698;8.762;2023-02-11T07:56:10;97725.00;;;-0.70
10869;BMP180;62667;48.698;8.762;2023-02-11T07:58:38;97727.00;;;-0.60
10869;BMP180;62667;48.698;8.762;2023-02-11T08:01:09;97736.00;;;-0.60
10869;BMP180;62667;48.698;8.762;2023-02-11T08:03:39;97724.00;;;-0.70
10869;BMP180;62667;48.698;8.762;2023-02-11T08:06:09;97722.00;;;-0.50
10869;BMP180;62667;48.698;8.762;2023-02-11T08:08:37;97721.00;;;-0.50
10869;BMP180;62667;48.698;8.762;2023-02-11T08:11:06;97709.00;;;-0.40
10869;BMP180;62667;48.698;8.762;2023-02-11T08:13:33;97710.00;;;-0.30
10869;BMP180;62667;48.698;8.762;2023-02-11T08:16:01;97704.00;;;-0.20
10869;BMP180;62667;48.698;8.762;2023-02-11T08:18:29;97702.00;;;-0.10
10869;BMP180;62667;48.698;8.762;2023-02-11T08:21:04;97698.00;;;0.20
10869;BMP180;62667;48.698;8.762;2023-02-11T08:23:31;97706.00;;;0.40
10869;BMP180;62667;48.698;8.762;2023-02-11T08:26:01;97692.00;;;0.60
10869;BMP180;62667;48.698;8.762;2023-02-11T08:28:28;97703.00;;;0.80
10869;BMP180;62667;48.698;8.762;2023-02-11T08:30:55;97690.00;;;0.70
10869;BMP180;62667;48.698;8.762;2023-02-11T08:33:22;97694.00;;;0.90
10869;BMP180;62667;48.698;8.762;2023-02-11T08:35:49;97696.00;;;1.00
10869;BMP180;62667;48.698;8.762;2023-02-11T08:38:18;97690.00;;;1.30
10869;BMP180;62667;48.698;8.762;2023-02-11T08:40:45;97706.00;;;1.50
10869;BMP180;62667;48.698;8.762;2023-02-11T08:43:13;97702.00;;;1.40
10869;BMP180;62667;48.698;8.762;2023-02-11T08:45:40;97695.00;;;1.50
10869;BMP180;62667;48.698;8.762;2023-02-11T08:48:07;97701.00;;;1.60
10869;BMP180;62667;48.698;8.762;2023-02-11T08:50:37;97702.00;;;1.70
10869;BMP180;62667;48.698;8.762;2023-02-11T08:53:04;97694.00;;;1.60
10869;BMP180;62667;48.698;8.762;2023-02-11T08:55:33;97692.00;;;1.70
10869;BMP180;62667;48.698;8.762;2023-02-11T08:58:00;97695.00;;;1.80
10869;BMP180;62667;48.698;8.762;2023-02-11T09:00:28;97695.00;;;1.90
10869;BMP180;62667;48.698;8.762;2023-02-11T09:02:55;97682.00;;;1.80
10869;BMP180;62667;48.698;8.762;2023-02-11T09:05:23;97681.00;;;2.00
10869;BMP180;62667;48.698;8.762;2023-02-11T09:07:50;97681.00;;;2.10
10869;BMP180;62667;48.698;8.762;2023-02-11T09:10:17;97682.00;;;2.30
10869;BMP180;62667;48.698;8.762;2023-02-11T09:12:46;97679.00;;;2.40
10869;BMP180;62667;48.698;8.762;2023-02-11T09:15:13;97665.00;;;2.60
10869;BMP180;62667;48.698;8.762;2023-02-11T09:17:40;97683.00;;;2.80
10869;BMP180;62667;48.698;8.762;2023-02-11T09:20:08;97668.00;;;2.90
10869;BMP180;62667;48.698;8.762;2023-02-11T09:22:36;97663.00;;;3.00
10869;BMP180;62667;48.698;8.762;2023-02-11T09:25:03;97666.00;;;3.20
10869;BMP180;62667;48.698;8.762;2023-02-11T09:27:30;97678.00;;;3.30
10869;BMP180;62667;48.698;8.762;2023-02-11T09:29:59;97675.00;;;3.40
10869;BMP180;62667;48.698;8.762;2023-02-11T09:32:26;97674.00;;;3.50
10869;BMP180;62667;48.698;8.762;2023-02-11T09:34:53;97670.00;;;3.50
10869;BMP180;62667;48.698;8.762;2023-02-11T09:37:20;97670.00;;;3.60
10869;BMP180;62667;48.698;8.762;2023-02-11T09:39:48;97665.00;;;3.60
10869;BMP180;62667;48.698;8.762;2023-02-11T09:42:40;97647.00;;;3.80
10869;BMP180;62667;48.698;8.762;2023-02-11T09:45:17;97655.00;;;3.80
10869;BMP180;62667;48.698;8.762;2023-02-11T09:47:51;97650.00;;;3.90
10869;BMP180;62667;48.698;8.762;2023-02-11T09:50:28;97660.00;;;4.10
10869;BMP180;62667;48.698;8.762;2023-02-11T09:53:00;97663.00;;;4.00
10869;BMP180;62667;48.698;8.762;2023-02-11T09:55:30;97655.00;;;4.10
10869;BMP180;62667;48.698;8.762;2023-02-11T09:58:02;97669.00;;;4.30
10869;BMP180;62667;48.698;8.762;2023-02-11T10:00:41;97670.00;;;4.40
10869;BMP180;62667;48.698;8.762;2023-02-11T10:06:40;97679.00;;;4.70
10869;BMP180;62667;48.698;8.762;2023-02-11T10:09:38;97682.00;;;4.90
10869;BMP180;62667;48.698;8.762;2023-02-11T10:12:24;97676.00;;;5.10
10869;BMP180;62667;48.698;8.762;2023-02-11T10:15:16;97677.00;;;5.10
10869;BMP180;62667;48.698;8.762;2023-02-11T10:18:00;97690.00;;;5.20
10869;BMP180;62667;48.698;8.762;2023-02-11T10:20:36;97684.00;;;5.20
10869;BMP180;62667;48.698;8.762;2023-02-11T10:23:14;97675.00;;;5.30
10869;BMP180;62667;48.698;8.762;2023-02-11T10:25:44;97677.00;;;5.50
10869;BMP180;62667;48.698;8.762;2023-02-11T10:28:16;97682.00;;;5.50
10869;BMP180;62667;48.698;8.762;2023-02-11T10:30:56;97686.00;;;5.60
10869;BMP180;62667;48.698;8.762;2023-02-11T10:33:30;97684.00;;;5.70
10869;BMP180;62667;48.698;8.762;2023-02-11T10:35:57;97691.00;;;5.90
10869;BMP180;62667;48.698;8.762;2023-02-11T10:38:25;97685.00;;;6.30
10869;BMP180;62667;48.698;8.762;2023-02-11T10:40:53;97684.00;;;6.30
10869;BMP180;62667;48.698;8.762;2023-02-11T10:43:25;97687.00;;;6.50
10869;BMP180;62667;48.698;8.762;2023-02-11T10:45:54;97685.00;;;6.30
10869;BMP180;62667;48.698;8.762;2023-02-11T10:48:53;97681.00;;;6.60
10869;BMP180;62667;48.698;8.762;2023-02-11T10:51:23;97673.00;;;6.70
10869;BMP180;62667;48.698;8.762;2023-02-11T10:54:11;97663.00;;;6.70
10869;BMP180;62667;48.698;8.762;2023-02-11T10:56:44;97671.00;;;7.00
10869;BMP180;62667;48.698;8.762;2023-02-11T10:59:20;97663.00;;;6.90
10869;BMP180;62667;48.698;8.762;2023-02-11T11:01:53;97665.00;;;6.70
10869;BMP180;62667;48.698;8.762;2023-02-11T11:04:39;97655.00;;;6.90
10869;BMP180;62667;48.698;8.762;2023-02-11T11:07:14;97648.00;;;7.20
10869;BMP180;62667;48.698;8.762;2023-02-11T11:09:49;97641.00;;;7.50
10869;BMP180;62667;48.698;8.762;2023-02-11T11:12:36;97636.00;;;7.60
10869;BMP180;62667;48.698;8.762;2023-02-11T11:15:21;97629.00;;;7.60
10869;BMP180;62667;48.698;8.762;2023-02-11T11:17:49;97636.00;;;8.00
10869;BMP180;62667;48.698;8.762;2023-02-11T11:20:25;97628.00;;;8.30
10869;BMP180;62667;48.698;8.762;2023-02-11T11:23:09;97629.00;;;8.50
10869;BMP180;62667;48.698;8.762;2023-02-11T11:25:41;97626.00;;;8.60
10869;BMP180;62667;48.698;8.762;2023-02-11T11:28:21;97625.00;;;8.60
10869;BMP180;62667;48.698;8.762;2023-02-11T11:30:52;97627.00;;;9.20
10869;BMP180;62667;48.698;8.762;2023-02-11T11:33:25;97621.00;;;9.60
10869;BMP180;62667;48.698;8.762;2023-02-11T11:36:03;97620.00;;;9.80
10869;BMP180;62667;48.698;8.762;2023-02-11T11:38:35;97625.00;;;9.90
10869;BMP180;62667;48.698;8.762;2023-02-11T11:41:20;97627.00;;;10.20
10869;BMP180;62667;48.698;8.762;2023-02-11T11:44:02;97635.00;;;10.40
10869;BMP180;62667;48.698;8.762;2023-02-11T11:46:33;97628.00;;;10.80
10869;BMP180;62667;48.698;8.762;2023-02-11T11:49:14;97629.00;;;10.80
10869;BMP180;62667;48.698;8.762;2023-02-11T11:51:56;97626.00;;;11.10
10869;BMP180;62667;48.698;8.762;2023-02-11T11:54:25;97627.00;;;11.00
10869;BMP180;62667;48.698;8.762;2023-02-11T11:56:59;97621.00;;;11.40
10869;BMP180;62667;48.698;8.762;2023-02-11T11:59:28;97615.00;;;11.70
10869;BMP180;62667;48.698;8.762;2023-02-11T12:02:10;97620.00;;;12.10
10869;BMP180;62667;48.698;8.762;2023-02-11T12:04:54;97611.00;;;12.20
10869;BMP180;62667;48.698;8.762;2023-02-11T12:07:36;97621.00;;;12.50
10869;BMP180;62667;48.698;8.762;2023-02-11T12:10:26;97624.00;;;12.40
10869;BMP180;62667;48.698;8.762;2023-02-11T12:13:04;97619.00;;;12.80
10869;BMP180;62667;48.698;8.762;2023-02-11T12:15:41;97613.00;;;13.40
10869;BMP180;62667;48.698;8.762;2023-02-11T12:18:22;97617.00;;;14.20
10869;BMP180;62667;48.698;8.762;2023-02-11T12:21:06;97614.00;;;14.40
10869;BMP180;62667;48.698;8.762;2023-02-11T12:23:54;97614.00;;;15.10
10869;BMP180;62667;48.698;8.762;2023-02-11T12:26:33;97605.00;;;15.40
10869;BMP180;62667;48.698;8.762;2023-02-11T12:29:13;97600.00;;;16.10
10869;BMP180;62667;48.698;8.762;2023-02-11T12:32:01;97610.00;;;16.30
10869;BMP180;62667;48.698;8.762;2023-02-11T12:34:54;97612.00;;;16.30
10869;BMP180;62667;48.698;8.762;2023-02-11T12:37:39;97635.00;;;15.90
10869;BMP180;62667;48.698;8.762;2023-02-11T12:40:17;97601.00;;;15.20
10869;BMP180;62667;48.698;8.762;2023-02-11T12:43:01;97612.00;;;15.90
10869;BMP180;62667;48.698;8.762;2023-02-11T12:46:32;97585.00;;;17.20
10869;BMP180;62667;48.698;8.762;2023-02-11T12:49:29;97592.00;;;18.20
10869;BMP180;62667;48.698;8.762;2023-02-11T12:52:13;97594.00;;;18.60
10869;BMP180;62667;48.698;8.762;2023-02-11T12:54:50;97592.00;;;18.80
10869;BMP180;62667;48.698;8.762;2023-02-11T12:57:25;97603.00;;;19.60
10869;BMP180;62667;48.698;8.762;2023-02-11T13:00:02;97595.00;;;20.10
10869;BMP180;62667;48.698;8.762;2023-02-11T13:02:40;97597.00;;;20.00
10869;BMP180;62667;48.698;8.762;2023-02-11T13:05:23;97573.00;;;21.00
10869;BMP180;62667;48.698;8.762;2023-02-11T13:07:54;97573.00;;;21.90
10869;BMP180;62667;48.698;8.762;2023-02-11T13:10:29;97566.00;;;22.60
10869;BMP180;62667;48.698;8.762;2023-02-11T13:13:02;97571.00;;;23.10
10869;BMP180;62667;48.698;8.762;2023-02-11T13:15:49;97569.00;;;23.20
10869;BMP180;62667;48.698;8.762;2023-02-11T13:18:35;97567.00;;;23.90
10869;BMP180;62667;48.698;8.762;2023-02-11T13:21:36;97574.00;;;25.00
10869;BMP180;62667;48.698;8.762;2023-02-11T13:24:16;97562.00;;;25.20
10869;BMP180;62667;48.698;8.762;2023-02-11T13:26:53;97562.00;;;26.50
10869;BMP180;62667;48.698;8.762;2023-02-11T13:29:31;97569.00;;;26.90
10869;BMP180;62667;48.698;8.762;2023-02-11T13:32:09;97567.00;;;28.40
10869;BMP180;62667;48.698;8.762;2023-02-11T13:34:57;97566.00;;;29.00
10869;BMP180;62667;48.698;8.762;2023-02-11T13:37:29;97572.00;;;30.10
10869;BMP180;62667;48.698;8.762;2023-02-11T13:40:00;97574.00;;;30.00
10869;BMP180;62667;48.698;8.762;2023-02-11T13:42:29;97581.00;;;31.10
10869;BMP180;62667;48.698;8.762;2023-02-11T13:44:58;97584.00;;;32.20
10869;BMP180;62667;48.698;8.762;2023-02-11T13:47:30;97591.00;;;32.50
10869;BMP180;62667;48.698;8.762;2023-02-11T13:50:00;97586.00;;;32.80
10869;BMP180;62667;48.698;8.762;2023-02-11T13:52:35;97592.00;;;33.80
10869;BMP180;62667;48.698;8.762;2023-02-11T13:55:14;97590.00;;;34.60
10869;BMP180;62667;48.698;8.762;2023-02-11T13:58:16;97597.00;;;35.50
10869;BMP180;62667;48.698;8.762;2023-02-11T14:00:49;97601.00;;;34.90
10869;BMP180;62667;48.698;8.762;2023-02-11T14:03:31;97608.00;;;35.00
10869;BMP180;62667;48.698;8.762;2023-02-11T14:06:19;97609.00;;;35.20
10869;BMP180;62667;48.698;8.762;2023-02-11T14:09:34;97614.00;;;35.20
10869;BMP180;62667;48.698;8.762;2023-02-11T14:12:24;97615.00;;;34.60
10869;BMP180;62667;48.698;8.762;2023-02-11T14:15:39;97622.00;;;35.90
10869;BMP180;62667;48.698;8.762;2023-02-11T14:18:59;97614.00;;;36.40
10869;BMP180;62667;48.698;8.762;2023-02-11T14:21:35;97609.00;;;36.10
10869;BMP180;62667;48.698;8.762;2023-02-11T14:24:48;97621.00;;;36.20
10869;BMP180;62667;48.698;8.762;2023-02-11T14:27:28;97616.00;;;35.20
10869;BMP180;62667;48.698;8.762;2023-02-11T14:30:28;97614.00;;;35.70
10869;BMP180;62667;48.698;8.762;2023-02-11T14:33:19;97617.00;;;35.40
10869;BMP180;62667;48.698;8.762;2023-02-11T14:36:04;97622.00;;;36.10
10869;BMP180;62667;48.698;8.762;2023-02-11T14:38:51;97620.00;;;33.90
10869;BMP180;62667;48.698;8.762;2023-02-11T14:41:23;97626.00;;;34.90
10869;BMP180;62667;48.698;8.762;2023-02-11T14:43:54;97633.00;;;35.60
10869;BMP180;62667;48.698;8.762;2023-02-11T14:46:24;97624.00;;;35.80
10869;BMP180;62667;48.698;8.762;2023-02-11T14:48:59;97636.00;;;35.60
10869;BMP180;62667;48.698;8.762;2023-02-11T14:51:33;97658.00;;;35.80